SARE/RES METAR and TAF weather

Enter ICAO airport designator
Station Type Date Time Source
SARE METAR 2019/02/20 17:00 UTC NOAA

SARE 201700Z 09006KT 8000 FEW035 34/22 Q1008


Station Type Date Time Source
SARE Decoded METAR 2019/02/20 17:00 UTC NOAA

Resistencia Aero., Argentina (SARE) 27-27S 059-03W 52M
Feb 20, 2019 - 12:00 PM EST / 2019.02.20 1700 UTC
Wind: from the E (090 degrees) at 7 MPH (6 KT):0
Visibility: 4 mile(s):0
Sky conditions: mostly clear
Temperature: 93 F (34 C)
Heat index: 100.0 F (37.8 C):1
Dew Point: 71 F (22 C)
Relative Humidity: 49%
Pressure (altimeter): 29.77 in. Hg (1008 hPa)
ob: SARE 201700Z 09006KT 8000 FEW035 34/22 Q1008
cycle: 17

Station Type Date Time Source
SARE TAF 2019/02/20 18:15 UTC NOAA

TAF TAF SARE 201700Z 2018/2118 05010KT 9999 SCT035 TX37/2118Z TN25/2109Z


Example: see airport list